sensor_id;sensor_type;location;lat;lon;timestamp;temperature;humidity
28863;DHT22;15994;51.796;13.006;2022-07-29T00:02:18;16.10;97.40
28863;DHT22;15994;51.796;13.006;2022-07-29T00:04:45;16.00;97.60
28863;DHT22;15994;51.796;13.006;2022-07-29T00:07:11;16.00;97.60
28863;DHT22;15994;51.796;13.006;2022-07-29T00:09:38;16.00;97.90
28863;DHT22;15994;51.796;13.006;2022-07-29T00:12:04;16.00;97.70
28863;DHT22;15994;51.796;13.006;2022-07-29T00:14:31;15.90;97.80
28863;DHT22;15994;51.796;13.006;2022-07-29T00:16:58;15.90;98.00
28863;DHT22;15994;51.796;13.006;2022-07-29T00:19:24;15.80;98.20
28863;DHT22;15994;51.796;13.006;2022-07-29T00:21:51;15.70;98.50
28863;DHT22;15994;51.796;13.006;2022-07-29T00:24:17;15.60;98.70
28863;DHT22;15994;51.796;13.006;2022-07-29T00:26:44;15.60;99.10
28863;DHT22;15994;51.796;13.006;2022-07-29T00:29:10;15.60;99.10
28863;DHT22;15994;51.796;13.006;2022-07-29T00:31:37;15.50;99.30
28863;DHT22;15994;51.796;13.006;2022-07-29T00:34:03;15.50;99.60
28863;DHT22;15994;51.796;13.006;2022-07-29T00:36:31;15.50;99.80
28863;DHT22;15994;51.796;13.006;2022-07-29T00:38:57;15.50;99.90
28863;DHT22;15994;51.796;13.006;2022-07-29T00:41:23;15.40;99.90
28863;DHT22;15994;51.796;13.006;2022-07-29T00:43:50;15.40;99.90
28863;DHT22;15994;51.796;13.006;2022-07-29T00:46:16;15.50;99.90
28863;DHT22;15994;51.796;13.006;2022-07-29T00:48:43;15.40;99.90
28863;DHT22;15994;51.796;13.006;2022-07-29T00:51:09;15.40;99.90
28863;DHT22;15994;51.796;13.006;2022-07-29T00:53:36;15.40;99.90
28863;DHT22;15994;51.796;13.006;2022-07-29T00:56:03;15.40;99.90
28863;DHT22;15994;51.796;13.006;2022-07-29T00:58:31;15.40;99.90
28863;DHT22;15994;51.796;13.006;2022-07-29T01:00:58;15.40;99.90
28863;DHT22;15994;51.796;13.006;2022-07-29T01:03:24;15.40;99.90
28863;DHT22;15994;51.796;13.006;2022-07-29T01:05:51;15.40;99.90
28863;DHT22;15994;51.796;13.006;2022-07-29T01:08:19;15.40;99.90
28863;DHT22;15994;51.796;13.006;2022-07-29T01:10:46;15.30;99.90
28863;DHT22;15994;51.796;13.006;2022-07-29T01:13:14;15.20;99.90
28863;DHT22;15994;51.796;13.006;2022-07-29T01:15:45;15.20;99.90
28863;DHT22;15994;51.796;13.006;2022-07-29T01:18:23;15.20;99.90
28863;DHT22;15994;51.796;13.006;2022-07-29T01:21:16;15.10;99.90
28863;DHT22;15994;51.796;13.006;2022-07-29T01:29:21;15.10;99.90
28863;DHT22;15994;51.796;13.006;2022-07-29T01:32:07;15.00;99.90
28863;DHT22;15994;51.796;13.006;2022-07-29T01:34:50;15.00;99.90
28863;DHT22;15994;51.796;13.006;2022-07-29T01:37:22;15.00;99.90
28863;DHT22;15994;51.796;13.006;2022-07-29T01:39:53;15.00;99.90
28863;DHT22;15994;51.796;13.006;2022-07-29T01:42:44;15.00;99.90
28863;DHT22;15994;51.796;13.006;2022-07-29T01:45:19;15.00;99.90
28863;DHT22;15994;51.796;13.006;2022-07-29T01:48:06;15.00;99.90
28863;DHT22;15994;51.796;13.006;2022-07-29T01:50:46;15.00;99.90
28863;DHT22;15994;51.796;13.006;2022-07-29T01:53:17;15.00;99.90
28863;DHT22;15994;51.796;13.006;2022-07-29T01:55:48;14.90;99.90
28863;DHT22;15994;51.796;13.006;2022-07-29T01:58:17;15.00;99.90
28863;DHT22;15994;51.796;13.006;2022-07-29T02:00:45;14.90;99.90
28863;DHT22;15994;51.796;13.006;2022-07-29T02:03:13;14.80;99.90
28863;DHT22;15994;51.796;13.006;2022-07-29T02:05:42;14.90;99.90
28863;DHT22;15994;51.796;13.006;2022-07-29T02:08:10;14.80;99.90
28863;DHT22;15994;51.796;13.006;2022-07-29T02:10:38;14.80;99.90
28863;DHT22;15994;51.796;13.006;2022-07-29T02:13:06;14.80;99.90
28863;DHT22;15994;51.796;13.006;2022-07-29T02:15:34;14.80;99.90
28863;DHT22;15994;51.796;13.006;2022-07-29T02:18:07;14.70;99.90
28863;DHT22;15994;51.796;13.006;2022-07-29T02:20:34;14.70;99.90
28863;DHT22;15994;51.796;13.006;2022-07-29T02:23:02;14.70;99.90
28863;DHT22;15994;51.796;13.006;2022-07-29T02:25:29;14.70;99.90
28863;DHT22;15994;51.796;13.006;2022-07-29T02:27:59;14.70;99.90
28863;DHT22;15994;51.796;13.006;2022-07-29T02:30:27;14.70;99.90
28863;DHT22;15994;51.796;13.006;2022-07-29T02:32:55;14.70;99.90
28863;DHT22;15994;51.796;13.006;2022-07-29T02:35:22;14.70;99.90
28863;DHT22;15994;51.796;13.006;2022-07-29T02:37:50;14.70;99.90
28863;DHT22;15994;51.796;13.006;2022-07-29T02:40:34;14.60;99.90
28863;DHT22;15994;51.796;13.006;2022-07-29T02:43:05;14.60;99.90
28863;DHT22;15994;51.796;13.006;2022-07-29T02:45:32;14.60;99.90
28863;DHT22;15994;51.796;13.006;2022-07-29T02:48:06;14.50;99.90
28863;DHT22;15994;51.796;13.006;2022-07-29T02:50:42;14.60;99.90
28863;DHT22;15994;51.796;13.006;2022-07-29T02:53:16;14.60;99.90
28863;DHT22;15994;51.796;13.006;2022-07-29T02:55:46;14.50;99.90
28863;DHT22;15994;51.796;13.006;2022-07-29T02:58:38;14.60;99.90
28863;DHT22;15994;51.796;13.006;2022-07-29T03:01:12;14.60;99.90
28863;DHT22;15994;51.796;13.006;2022-07-29T03:03:42;14.60;99.90
28863;DHT22;15994;51.796;13.006;2022-07-29T03:06:12;14.60;99.90
28863;DHT22;15994;51.796;13.006;2022-07-29T03:08:39;14.60;99.90
28863;DHT22;15994;51.796;13.006;2022-07-29T03:11:08;14.60;99.90
28863;DHT22;15994;51.796;13.006;2022-07-29T03:13:35;14.60;99.90
28863;DHT22;15994;51.796;13.006;2022-07-29T03:16:03;14.70;99.90
28863;DHT22;15994;51.796;13.006;2022-07-29T03:18:31;14.80;99.90
28863;DHT22;15994;51.796;13.006;2022-07-29T03:20:58;14.80;99.90
28863;DHT22;15994;51.796;13.006;2022-07-29T03:23:24;14.70;99.90
28863;DHT22;15994;51.796;13.006;2022-07-29T03:25:54;14.80;99.90
28863;DHT22;15994;51.796;13.006;2022-07-29T03:28:21;14.80;99.90
28863;DHT22;15994;51.796;13.006;2022-07-29T03:30:49;14.70;99.90
28863;DHT22;15994;51.796;13.006;2022-07-29T03:33:16;14.70;99.90
28863;DHT22;15994;51.796;13.006;2022-07-29T03:35:42;14.70;99.90
28863;DHT22;15994;51.796;13.006;2022-07-29T03:38:09;14.70;99.90
28863;DHT22;15994;51.796;13.006;2022-07-29T03:43:09;14.60;99.90
28863;DHT22;15994;51.796;13.006;2022-07-29T03:45:38;14.60;99.90
28863;DHT22;15994;51.796;13.006;2022-07-29T03:48:10;14.60;99.90
28863;DHT22;15994;51.796;13.006;2022-07-29T03:50:39;14.70;99.90
28863;DHT22;15994;51.796;13.006;2022-07-29T03:53:06;14.70;99.90
28863;DHT22;15994;51.796;13.006;2022-07-29T03:55:37;14.70;99.90
28863;DHT22;15994;51.796;13.006;2022-07-29T03:58:06;14.70;99.90
28863;DHT22;15994;51.796;13.006;2022-07-29T04:00:35;14.80;99.90
28863;DHT22;15994;51.796;13.006;2022-07-29T04:03:03;14.80;99.90
28863;DHT22;15994;51.796;13.006;2022-07-29T04:05:30;14.80;99.90
28863;DHT22;15994;51.796;13.006;2022-07-29T04:07:57;14.80;99.90
28863;DHT22;15994;51.796;13.006;2022-07-29T04:10:23;14.80;99.90
28863;DHT22;15994;51.796;13.006;2022-07-29T04:12:50;14.80;99.90
28863;DHT22;15994;51.796;13.006;2022-07-29T04:15:17;14.80;99.90
28863;DHT22;15994;51.796;13.006;2022-07-29T04:17:44;14.80;99.90
28863;DHT22;15994;51.796;13.006;2022-07-29T04:20:11;14.80;99.90
28863;DHT22;15994;51.796;13.006;2022-07-29T04:22:39;14.80;99.90
28863;DHT22;15994;51.796;13.006;2022-07-29T04:25:05;14.80;99.90
28863;DHT22;15994;51.796;13.006;2022-07-29T04:27:32;14.90;99.90
28863;DHT22;15994;51.796;13.006;2022-07-29T04:29:59;14.80;99.90
28863;DHT22;15994;51.796;13.006;2022-07-29T04:32:25;14.80;99.90
28863;DHT22;15994;51.796;13.006;2022-07-29T04:34:52;14.80;99.90
28863;DHT22;15994;51.796;13.006;2022-07-29T04:37:19;14.70;99.90
28863;DHT22;15994;51.796;13.006;2022-07-29T04:39:46;14.80;99.90
28863;DHT22;15994;51.796;13.006;2022-07-29T04:42:12;14.80;99.90
28863;DHT22;15994;51.796;13.006;2022-07-29T04:44:39;14.70;99.90
28863;DHT22;15994;51.796;13.006;2022-07-29T04:47:07;14.70;99.90
28863;DHT22;15994;51.796;13.006;2022-07-29T04:49:34;14.80;99.90
28863;DHT22;15994;51.796;13.006;2022-07-29T04:52:00;14.80;99.90
28863;DHT22;15994;51.796;13.006;2022-07-29T04:54:27;14.90;99.90
28863;DHT22;15994;51.796;13.006;2022-07-29T04:56:54;14.80;99.90
28863;DHT22;15994;51.796;13.006;2022-07-29T04:59:21;14.90;99.90
28863;DHT22;15994;51.796;13.006;2022-07-29T05:01:47;14.90;99.90
28863;DHT22;15994;51.796;13.006;2022-07-29T05:04:14;14.80;99.90
28863;DHT22;15994;51.796;13.006;2022-07-29T05:06:41;14.70;99.90
28863;DHT22;15994;51.796;13.006;2022-07-29T05:09:07;14.70;99.90
28863;DHT22;15994;51.796;13.006;2022-07-29T05:11:34;14.90;99.90
28863;DHT22;15994;51.796;13.006;2022-07-29T05:14:00;15.00;99.90
28863;DHT22;15994;51.796;13.006;2022-07-29T05:16:27;15.00;99.90
28863;DHT22;15994;51.796;13.006;2022-07-29T05:18:53;15.10;99.90
28863;DHT22;15994;51.796;13.006;2022-07-29T05:21:20;15.30;99.90
28863;DHT22;15994;51.796;13.006;2022-07-29T05:23:46;15.40;99.90
28863;DHT22;15994;51.796;13.006;2022-07-29T05:26:13;15.60;99.90
28863;DHT22;15994;51.796;13.006;2022-07-29T05:28:39;15.70;99.90
28863;DHT22;15994;51.796;13.006;2022-07-29T05:31:06;15.70;99.90
28863;DHT22;15994;51.796;13.006;2022-07-29T05:33:32;15.90;99.90
28863;DHT22;15994;51.796;13.006;2022-07-29T05:35:59;15.80;99.90
28863;DHT22;15994;51.796;13.006;2022-07-29T05:38:25;15.90;99.90
28863;DHT22;15994;51.796;13.006;2022-07-29T05:40:52;16.00;99.90
28863;DHT22;15994;51.796;13.006;2022-07-29T05:43:18;16.10;99.90
28863;DHT22;15994;51.796;13.006;2022-07-29T05:45:46;16.10;99.90
28863;DHT22;15994;51.796;13.006;2022-07-29T05:48:12;16.10;99.90
28863;DHT22;15994;51.796;13.006;2022-07-29T05:50:39;16.00;99.90
28863;DHT22;15994;51.796;13.006;2022-07-29T05:53:05;15.90;99.90
28863;DHT22;15994;51.796;13.006;2022-07-29T05:55:32;15.90;99.90
28863;DHT22;15994;51.796;13.006;2022-07-29T05:57:58;16.00;99.90
28863;DHT22;15994;51.796;13.006;2022-07-29T06:00:25;16.10;99.90
28863;DHT22;15994;51.796;13.006;2022-07-29T06:02:52;16.30;99.90
28863;DHT22;15994;51.796;13.006;2022-07-29T06:05:18;16.30;99.90
28863;DHT22;15994;51.796;13.006;2022-07-29T06:07:45;16.40;99.90
28863;DHT22;15994;51.796;13.006;2022-07-29T06:10:11;16.50;99.90
28863;DHT22;15994;51.796;13.006;2022-07-29T06:12:38;16.60;99.90
28863;DHT22;15994;51.796;13.006;2022-07-29T06:15:05;16.70;99.90
28863;DHT22;15994;51.796;13.006;2022-07-29T06:17:32;16.70;99.90
28863;DHT22;15994;51.796;13.006;2022-07-29T06:19:58;16.90;99.90
28863;DHT22;15994;51.796;13.006;2022-07-29T06:22:25;17.00;99.90
28863;DHT22;15994;51.796;13.006;2022-07-29T06:24:51;17.00;99.90
28863;DHT22;15994;51.796;13.006;2022-07-29T06:27:18;17.00;99.90
28863;DHT22;15994;51.796;13.006;2022-07-29T06:29:44;17.10;99.90
28863;DHT22;15994;51.796;13.006;2022-07-29T06:32:11;17.10;99.90
28863;DHT22;15994;51.796;13.006;2022-07-29T06:34:37;17.20;99.90
28863;DHT22;15994;51.796;13.006;2022-07-29T06:37:07;17.20;99.90
28863;DHT22;15994;51.796;13.006;2022-07-29T06:39:38;17.40;99.90
28863;DHT22;15994;51.796;13.006;2022-07-29T06:42:05;17.60;99.90
28863;DHT22;15994;51.796;13.006;2022-07-29T06:44:32;17.70;99.90
28863;DHT22;15994;51.796;13.006;2022-07-29T06:47:00;17.80;99.90
28863;DHT22;15994;51.796;13.006;2022-07-29T06:49:26;17.90;99.90
28863;DHT22;15994;51.796;13.006;2022-07-29T06:51:53;18.00;99.90
28863;DHT22;15994;51.796;13.006;2022-07-29T06:54:20;18.20;99.90
28863;DHT22;15994;51.796;13.006;2022-07-29T06:56:47;18.30;99.90
28863;DHT22;15994;51.796;13.006;2022-07-29T06:59:14;18.30;99.90
28863;DHT22;15994;51.796;13.006;2022-07-29T07:01:42;18.40;99.90
28863;DHT22;15994;51.796;13.006;2022-07-29T07:04:09;18.60;99.90
28863;DHT22;15994;51.796;13.006;2022-07-29T07:06:36;18.70;99.90
28863;DHT22;15994;51.796;13.006;2022-07-29T07:09:04;18.70;99.60
28863;DHT22;15994;51.796;13.006;2022-07-29T07:11:30;18.80;98.90
28863;DHT22;15994;51.796;13.006;2022-07-29T07:13:57;18.90;98.90
28863;DHT22;15994;51.796;13.006;2022-07-29T07:16:24;19.00;98.80
28863;DHT22;15994;51.796;13.006;2022-07-29T07:18:50;19.10;98.00
28863;DHT22;15994;51.796;13.006;2022-07-29T07:21:17;19.20;98.10
28863;DHT22;15994;51.796;13.006;2022-07-29T07:23:43;19.30;98.10
28863;DHT22;15994;51.796;13.006;2022-07-29T07:26:10;19.50;97.90
28863;DHT22;15994;51.796;13.006;2022-07-29T07:28:36;19.60;97.80
28863;DHT22;15994;51.796;13.006;2022-07-29T07:31:03;19.70;97.70
28863;DHT22;15994;51.796;13.006;2022-07-29T07:33:29;19.70;97.10
28863;DHT22;15994;51.796;13.006;2022-07-29T07:35:58;19.70;96.90
28863;DHT22;15994;51.796;13.006;2022-07-29T07:38:26;19.70;97.10
28863;DHT22;15994;51.796;13.006;2022-07-29T07:40:52;19.70;96.90
28863;DHT22;15994;51.796;13.006;2022-07-29T07:43:19;19.70;97.20
28863;DHT22;15994;51.796;13.006;2022-07-29T07:45:45;19.70;97.10
28863;DHT22;15994;51.796;13.006;2022-07-29T07:48:12;19.80;96.60
28863;DHT22;15994;51.796;13.006;2022-07-29T07:50:38;19.90;96.80
28863;DHT22;15994;51.796;13.006;2022-07-29T07:53:05;19.90;96.60
28863;DHT22;15994;51.796;13.006;2022-07-29T07:55:31;19.90;96.00
28863;DHT22;15994;51.796;13.006;2022-07-29T07:57:58;20.00;96.40
28863;DHT22;15994;51.796;13.006;2022-07-29T08:00:24;20.00;96.10
28863;DHT22;15994;51.796;13.006;2022-07-29T08:02:51;20.10;96.20
28863;DHT22;15994;51.796;13.006;2022-07-29T08:05:18;20.20;95.90
28863;DHT22;15994;51.796;13.006;2022-07-29T08:07:46;20.30;95.80
28863;DHT22;15994;51.796;13.006;2022-07-29T08:10:14;20.50;95.50
28863;DHT22;15994;51.796;13.006;2022-07-29T08:13:05;20.40;95.50
28863;DHT22;15994;51.796;13.006;2022-07-29T08:15:32;20.40;95.00
28863;DHT22;15994;51.796;13.006;2022-07-29T08:17:58;20.50;95.10
28863;DHT22;15994;51.796;13.006;2022-07-29T08:20:25;20.60;95.20
28863;DHT22;15994;51.796;13.006;2022-07-29T08:22:52;20.90;94.70
28863;DHT22;15994;51.796;13.006;2022-07-29T08:25:19;21.00;95.20
28863;DHT22;15994;51.796;13.006;2022-07-29T08:27:47;21.10;94.40
28863;DHT22;15994;51.796;13.006;2022-07-29T08:30:14;21.20;94.30
28863;DHT22;15994;51.796;13.006;2022-07-29T08:32:42;21.40;94.90
28863;DHT22;15994;51.796;13.006;2022-07-29T08:35:08;21.40;93.50
28863;DHT22;15994;51.796;13.006;2022-07-29T08:37:35;21.20;93.60
28863;DHT22;15994;51.796;13.006;2022-07-29T08:40:02;21.40;94.10
28863;DHT22;15994;51.796;13.006;2022-07-29T08:42:30;21.40;93.90
28863;DHT22;15994;51.796;13.006;2022-07-29T08:44:57;21.50;93.50
28863;DHT22;15994;51.796;13.006;2022-07-29T08:47:24;21.50;93.80
28863;DHT22;15994;51.796;13.006;2022-07-29T08:49:51;21.40;93.00
28863;DHT22;15994;51.796;13.006;2022-07-29T08:52:18;21.40;92.90
28863;DHT22;15994;51.796;13.006;2022-07-29T08:54:46;21.30;93.60
28863;DHT22;15994;51.796;13.006;2022-07-29T08:57:14;21.30;93.50
28863;DHT22;15994;51.796;13.006;2022-07-29T08:59:42;21.30;93.10
28863;DHT22;15994;51.796;13.006;2022-07-29T09:02:18;21.30;93.30
28863;DHT22;15994;51.796;13.006;2022-07-29T09:04:45;21.40;93.50
28863;DHT22;15994;51.796;13.006;2022-07-29T09:07:15;21.50;93.40
28863;DHT22;15994;51.796;13.006;2022-07-29T09:09:42;21.50;93.20
28863;DHT22;15994;51.796;13.006;2022-07-29T09:12:10;21.60;93.20
28863;DHT22;15994;51.796;13.006;2022-07-29T09:14:38;21.70;93.40
28863;DHT22;15994;51.796;13.006;2022-07-29T09:17:05;21.70;93.50
28863;DHT22;15994;51.796;13.006;2022-07-29T09:19:33;21.80;93.80
28863;DHT22;15994;51.796;13.006;2022-07-29T09:22:03;21.90;93.40
28863;DHT22;15994;51.796;13.006;2022-07-29T09:24:41;22.10;93.50
28863;DHT22;15994;51.796;13.006;2022-07-29T09:29:36;22.30;92.40
28863;DHT22;15994;51.796;13.006;2022-07-29T09:32:07;22.50;92.60
28863;DHT22;15994;51.796;13.006;2022-07-29T09:34:34;22.60;92.00
28863;DHT22;15994;51.796;13.006;2022-07-29T09:37:01;22.70;92.50
28863;DHT22;15994;51.796;13.006;2022-07-29T09:39:39;22.70;92.00
28863;DHT22;15994;51.796;13.006;2022-07-29T09:42:11;22.80;91.60
28863;DHT22;15994;51.796;13.006;2022-07-29T09:44:45;22.80;91.60
28863;DHT22;15994;51.796;13.006;2022-07-29T09:47:13;22.90;91.80
28863;DHT22;15994;51.796;13.006;2022-07-29T09:49:57;22.90;92.00
28863;DHT22;15994;51.796;13.006;2022-07-29T09:52:25;23.00;92.30
28863;DHT22;15994;51.796;13.006;2022-07-29T09:54:51;23.00;92.20
28863;DHT22;15994;51.796;13.006;2022-07-29T09:57:27;23.20;92.40
28863;DHT22;15994;51.796;13.006;2022-07-29T10:00:00;23.40;91.90
28863;DHT22;15994;51.796;13.006;2022-07-29T10:02:32;23.40;91.20
28863;DHT22;15994;51.796;13.006;2022-07-29T10:05:00;23.60;91.80
28863;DHT22;15994;51.796;13.006;2022-07-29T10:07:44;23.50;91.30
28863;DHT22;15994;51.796;13.006;2022-07-29T10:10:17;23.50;90.90
28863;DHT22;15994;51.796;13.006;2022-07-29T10:12:58;23.70;90.60
28863;DHT22;15994;51.796;13.006;2022-07-29T10:15:27;23.70;91.00
28863;DHT22;15994;51.796;13.006;2022-07-29T10:17:56;23.70;90.80
28863;DHT22;15994;51.796;13.006;2022-07-29T10:20:24;23.80;90.20
28863;DHT22;15994;51.796;13.006;2022-07-29T10:22:52;23.90;90.70
28863;DHT22;15994;51.796;13.006;2022-07-29T10:25:19;24.00;90.80
28863;DHT22;15994;51.796;13.006;2022-07-29T10:27:47;24.10;90.40
28863;DHT22;15994;51.796;13.006;2022-07-29T10:30:17;24.10;89.50
28863;DHT22;15994;51.796;13.006;2022-07-29T10:35:32;24.20;90.10
28863;DHT22;15994;51.796;13.006;2022-07-29T10:38:36;24.40;90.50
28863;DHT22;15994;51.796;13.006;2022-07-29T10:41:33;24.50;88.50
28863;DHT22;15994;51.796;13.006;2022-07-29T10:44:19;24.70;89.60
28863;DHT22;15994;51.796;13.006;2022-07-29T10:46:47;24.70;87.20
28863;DHT22;15994;51.796;13.006;2022-07-29T10:49:22;24.70;87.70
28863;DHT22;15994;51.796;13.006;2022-07-29T10:54:17;24.90;89.00
28863;DHT22;15994;51.796;13.006;2022-07-29T10:56:44;25.10;88.00
28863;DHT22;15994;51.796;13.006;2022-07-29T11:01:47;25.20;88.10
28863;DHT22;15994;51.796;13.006;2022-07-29T11:04:15;25.10;87.30
28863;DHT22;15994;51.796;13.006;2022-07-29T11:09:27;25.50;87.20
28863;DHT22;15994;51.796;13.006;2022-07-29T11:11:56;25.40;87.10
28863;DHT22;15994;51.796;13.006;2022-07-29T11:17:24;25.60;86.80
28863;DHT22;15994;51.796;13.006;2022-07-29T11:19:51;25.70;85.20
28863;DHT22;15994;51.796;13.006;2022-07-29T11:22:35;25.70;84.30
28863;DHT22;15994;51.796;13.006;2022-07-29T11:25:15;25.80;84.70
28863;DHT22;15994;51.796;13.006;2022-07-29T11:27:42;25.90;84.60
28863;DHT22;15994;51.796;13.006;2022-07-29T11:30:10;26.20;83.20
28863;DHT22;15994;51.796;13.006;2022-07-29T11:32:39;26.10;84.40
28863;DHT22;15994;51.796;13.006;2022-07-29T11:35:20;26.20;83.60
28863;DHT22;15994;51.796;13.006;2022-07-29T11:38:27;26.20;82.20
28863;DHT22;15994;51.796;13.006;2022-07-29T11:43:47;26.20;85.00
28863;DHT22;15994;51.796;13.006;2022-07-29T11:46:14;26.20;85.20
28863;DHT22;15994;51.796;13.006;2022-07-29T11:48:43;26.20;84.20
28863;DHT22;15994;51.796;13.006;2022-07-29T11:51:11;26.20;85.50
28863;DHT22;15994;51.796;13.006;2022-07-29T11:53:39;26.40;86.90
28863;DHT22;15994;51.796;13.006;2022-07-29T11:56:08;26.50;84.50
28863;DHT22;15994;51.796;13.006;2022-07-29T11:58:35;26.70;82.60
28863;DHT22;15994;51.796;13.006;2022-07-29T12:01:02;26.90;80.60
28863;DHT22;15994;51.796;13.006;2022-07-29T12:03:29;26.90;79.80
28863;DHT22;15994;51.796;13.006;2022-07-29T12:05:56;26.80;81.10
28863;DHT22;15994;51.796;13.006;2022-07-29T12:08:22;26.80;80.10
28863;DHT22;15994;51.796;13.006;2022-07-29T12:10:51;27.00;83.30
28863;DHT22;15994;51.796;13.006;2022-07-29T12:13:20;27.10;81.30
28863;DHT22;15994;51.796;13.006;2022-07-29T12:15:54;27.20;80.90
28863;DHT22;15994;51.796;13.006;2022-07-29T12:18:22;27.20;79.80
28863;DHT22;15994;51.796;13.006;2022-07-29T12:20:48;27.30;81.30
28863;DHT22;15994;51.796;13.006;2022-07-29T12:23:15;27.40;78.30
28863;DHT22;15994;51.796;13.006;2022-07-29T12:25:43;27.50;77.30
28863;DHT22;15994;51.796;13.006;2022-07-29T12:28:13;27.40;78.30
28863;DHT22;15994;51.796;13.006;2022-07-29T12:30:46;27.50;77.80
28863;DHT22;15994;51.796;13.006;2022-07-29T12:33:24;27.50;77.50
28863;DHT22;15994;51.796;13.006;2022-07-29T12:35:57;27.60;78.60
28863;DHT22;15994;51.796;13.006;2022-07-29T12:38:24;27.60;79.60
28863;DHT22;15994;51.796;13.006;2022-07-29T12:40:53;27.60;78.90
28863;DHT22;15994;51.796;13.006;2022-07-29T12:43:24;27.60;77.00
28863;DHT22;15994;51.796;13.006;2022-07-29T12:45:53;27.60;76.90
28863;DHT22;15994;51.796;13.006;2022-07-29T12:48:40;27.60;78.10
28863;DHT22;15994;51.796;13.006;2022-07-29T12:51:08;27.50;77.60
28863;DHT22;15994;51.796;13.006;2022-07-29T12:53:37;27.70;77.50
28863;DHT22;15994;51.796;13.006;2022-07-29T12:56:05;27.70;78.40
28863;DHT22;15994;51.796;13.006;2022-07-29T12:58:40;27.70;76.70
28863;DHT22;15994;51.796;13.006;2022-07-29T13:01:10;27.80;77.90
28863;DHT22;15994;51.796;13.006;2022-07-29T13:06:40;27.80;76.00
28863;DHT22;15994;51.796;13.006;2022-07-29T13:09:09;28.00;75.80
28863;DHT22;15994;51.796;13.006;2022-07-29T13:11:41;28.10;76.00
28863;DHT22;15994;51.796;13.006;2022-07-29T13:14:11;28.10;75.40
28863;DHT22;15994;51.796;13.006;2022-07-29T13:17:02;28.10;73.60
28863;DHT22;15994;51.796;13.006;2022-07-29T13:19:41;28.00;72.60
28863;DHT22;15994;51.796;13.006;2022-07-29T13:22:10;27.90;74.10
28863;DHT22;15994;51.796;13.006;2022-07-29T13:24:54;28.00;74.00
28863;DHT22;15994;51.796;13.006;2022-07-29T13:27:28;28.10;74.30
28863;DHT22;15994;51.796;13.006;2022-07-29T13:29:58;28.20;75.10
28863;DHT22;15994;51.796;13.006;2022-07-29T13:32:26;28.20;74.10
28863;DHT22;15994;51.796;13.006;2022-07-29T13:34:57;28.30;75.70
28863;DHT22;15994;51.796;13.006;2022-07-29T13:37:26;28.40;75.30
28863;DHT22;15994;51.796;13.006;2022-07-29T13:39:57;28.40;74.90
28863;DHT22;15994;51.796;13.006;2022-07-29T13:42:24;28.60;74.40
28863;DHT22;15994;51.796;13.006;2022-07-29T13:44:52;28.70;73.10
28863;DHT22;15994;51.796;13.006;2022-07-29T13:47:19;28.60;72.90
28863;DHT22;15994;51.796;13.006;2022-07-29T13:49:46;28.50;74.10
28863;DHT22;15994;51.796;13.006;2022-07-29T13:52:13;28.40;74.50
28863;DHT22;15994;51.796;13.006;2022-07-29T13:54:41;28.20;73.50
28863;DHT22;15994;51.796;13.006;2022-07-29T13:57:09;28.20;75.10
28863;DHT22;15994;51.796;13.006;2022-07-29T13:59:36;28.20;75.00
28863;DHT22;15994;51.796;13.006;2022-07-29T14:02:03;28.30;74.80
28863;DHT22;15994;51.796;13.006;2022-07-29T14:04:30;28.40;74.90
28863;DHT22;15994;51.796;13.006;2022-07-29T14:06:56;28.50;73.30
28863;DHT22;15994;51.796;13.006;2022-07-29T14:09:23;28.80;75.90
28863;DHT22;15994;51.796;13.006;2022-07-29T14:14:25;29.20;72.90
28863;DHT22;15994;51.796;13.006;2022-07-29T14:16:52;29.30;73.60
28863;DHT22;15994;51.796;13.006;2022-07-29T14:19:18;29.40;73.10
28863;DHT22;15994;51.796;13.006;2022-07-29T14:21:45;29.40;69.70
28863;DHT22;15994;51.796;13.006;2022-07-29T14:24:11;29.30;67.90
28863;DHT22;15994;51.796;13.006;2022-07-29T14:26:38;29.40;70.50
28863;DHT22;15994;51.796;13.006;2022-07-29T14:29:04;29.40;71.80
28863;DHT22;15994;51.796;13.006;2022-07-29T14:31:31;29.40;72.10
28863;DHT22;15994;51.796;13.006;2022-07-29T14:33:57;29.30;71.30
28863;DHT22;15994;51.796;13.006;2022-07-29T14:36:24;29.20;70.80
28863;DHT22;15994;51.796;13.006;2022-07-29T14:38:51;29.10;71.70
28863;DHT22;15994;51.796;13.006;2022-07-29T14:41:17;29.10;72.40
28863;DHT22;15994;51.796;13.006;2022-07-29T14:43:44;29.00;72.70
28863;DHT22;15994;51.796;13.006;2022-07-29T14:46:10;29.00;71.60
28863;DHT22;15994;51.796;13.006;2022-07-29T14:48:37;28.80;71.80
28863;DHT22;15994;51.796;13.006;2022-07-29T14:51:03;28.70;72.20
28863;DHT22;15994;51.796;13.006;2022-07-29T14:53:30;28.60;72.30
28863;DHT22;15994;51.796;13.006;2022-07-29T14:55:57;28.60;73.00
28863;DHT22;15994;51.796;13.006;2022-07-29T14:58:23;28.70;72.50
28863;DHT22;15994;51.796;13.006;2022-07-29T15:00:50;28.70;71.60
28863;DHT22;15994;51.796;13.006;2022-07-29T15:03:17;28.70;72.40
28863;DHT22;15994;51.796;13.006;2022-07-29T15:05:44;28.80;72.10
28863;DHT22;15994;51.796;13.006;2022-07-29T15:08:10;28.80;72.50
28863;DHT22;15994;51.796;13.006;2022-07-29T15:10:37;28.70;72.50
28863;DHT22;15994;51.796;13.006;2022-07-29T15:13:03;28.80;72.20
28863;DHT22;15994;51.796;13.006;2022-07-29T15:15:30;28.90;73.40
28863;DHT22;15994;51.796;13.006;2022-07-29T15:17:56;28.90;72.10
28863;DHT22;15994;51.796;13.006;2022-07-29T15:20:23;28.80;71.70
28863;DHT22;15994;51.796;13.006;2022-07-29T15:22:52;28.80;72.10
28863;DHT22;15994;51.796;13.006;2022-07-29T15:25:21;28.80;71.50
28863;DHT22;15994;51.796;13.006;2022-07-29T15:27:48;28.80;72.40
28863;DHT22;15994;51.796;13.006;2022-07-29T15:30:15;28.80;72.50
28863;DHT22;15994;51.796;13.006;2022-07-29T15:32:44;28.90;72.00
28863;DHT22;15994;51.796;13.006;2022-07-29T15:35:12;29.10;71.50
28863;DHT22;15994;51.796;13.006;2022-07-29T15:37:39;29.10;71.70
28863;DHT22;15994;51.796;13.006;2022-07-29T15:40:06;29.20;71.30
28863;DHT22;15994;51.796;13.006;2022-07-29T15:42:35;29.30;72.70
28863;DHT22;15994;51.796;13.006;2022-07-29T15:45:03;29.20;70.90
28863;DHT22;15994;51.796;13.006;2022-07-29T15:47:29;29.20;70.80
28863;DHT22;15994;51.796;13.006;2022-07-29T15:49:56;29.30;71.00
28863;DHT22;15994;51.796;13.006;2022-07-29T15:52:22;29.40;70.50
28863;DHT22;15994;51.796;13.006;2022-07-29T15:54:49;29.40;71.00
28863;DHT22;15994;51.796;13.006;2022-07-29T15:57:16;29.20;70.40
28863;DHT22;15994;51.796;13.006;2022-07-29T15:59:42;29.10;70.60